Aviation Digital Data Service (ADDS)

Output produced by METARs form (0617 UTC 27 August 2016)
found at http://aviationweather.gov/adds/metars/
 
KMHT 270529Z 2706/2806 34004KT P6SM SKC 
     FM272000 12006KT P6SM SKC